sensor_id;sensor_type;location;lat;lon;timestamp;temperature;humidity
27747;DHT22;15138;51.012;4.692;2022-09-21T00:01:13;10.80;99.90
27747;DHT22;15138;51.012;4.692;2022-09-21T00:03:42;10.80;99.90
27747;DHT22;15138;51.012;4.692;2022-09-21T00:06:12;10.80;67.20
27747;DHT22;15138;51.012;4.692;2022-09-21T00:08:40;10.80;99.90
27747;DHT22;15138;51.012;4.692;2022-09-21T00:11:11;10.70;99.90
27747;DHT22;15138;51.012;4.692;2022-09-21T00:13:41;10.70;99.90
27747;DHT22;15138;51.012;4.692;2022-09-21T00:16:15;10.50;99.90
27747;DHT22;15138;51.012;4.692;2022-09-21T00:18:43;10.50;99.90
27747;DHT22;15138;51.012;4.692;2022-09-21T00:21:13;10.60;1.00
27747;DHT22;15138;51.012;4.692;2022-09-21T00:23:43;10.50;1.00
27747;DHT22;15138;51.012;4.692;2022-09-21T00:26:13;10.50;1.00
27747;DHT22;15138;51.012;4.692;2022-09-21T00:28:43;10.50;99.90
27747;DHT22;15138;51.012;4.692;2022-09-21T00:31:15;10.50;1.00
27747;DHT22;15138;51.012;4.692;2022-09-21T00:33:44;10.40;1.00
27747;DHT22;15138;51.012;4.692;2022-09-21T00:36:14;10.40;99.90
27747;DHT22;15138;51.012;4.692;2022-09-21T00:38:43;10.40;1.00
27747;DHT22;15138;51.012;4.692;2022-09-21T00:41:12;10.40;1.00
27747;DHT22;15138;51.012;4.692;2022-09-21T00:43:43;10.40;99.90
27747;DHT22;15138;51.012;4.692;2022-09-21T00:46:18;10.30;99.90
27747;DHT22;15138;51.012;4.692;2022-09-21T00:48:50;10.20;1.00
27747;DHT22;15138;51.012;4.692;2022-09-21T00:51:18;10.30;99.90
27747;DHT22;15138;51.012;4.692;2022-09-21T00:53:47;10.20;99.90
27747;DHT22;15138;51.012;4.692;2022-09-21T00:56:18;10.10;1.00
27747;DHT22;15138;51.012;4.692;2022-09-21T00:58:48;10.10;99.90
27747;DHT22;15138;51.012;4.692;2022-09-21T01:01:19;10.10;99.90
27747;DHT22;15138;51.012;4.692;2022-09-21T01:03:49;10.10;99.90
27747;DHT22;15138;51.012;4.692;2022-09-21T01:06:19;10.10;1.00
27747;DHT22;15138;51.012;4.692;2022-09-21T01:08:51;10.10;99.90
27747;DHT22;15138;51.012;4.692;2022-09-21T01:11:28;10.00;99.90
27747;DHT22;15138;51.012;4.692;2022-09-21T01:14:25;10.10;99.90
27747;DHT22;15138;51.012;4.692;2022-09-21T01:17:08;10.00;99.90
27747;DHT22;15138;51.012;4.692;2022-09-21T01:22:57;9.90;26.10
27747;DHT22;15138;51.012;4.692;2022-09-21T01:25:36;9.90;1.00
27747;DHT22;15138;51.012;4.692;2022-09-21T01:28:14;9.90;99.90
27747;DHT22;15138;51.012;4.692;2022-09-21T01:30:48;9.90;17.70
27747;DHT22;15138;51.012;4.692;2022-09-21T01:33:24;9.80;1.00
27747;DHT22;15138;51.012;4.692;2022-09-21T01:35:57;9.80;30.00
27747;DHT22;15138;51.012;4.692;2022-09-21T01:38:32;9.80;1.00
27747;DHT22;15138;51.012;4.692;2022-09-21T01:41:04;9.80;99.90
27747;DHT22;15138;51.012;4.692;2022-09-21T01:43:36;9.80;1.00
27747;DHT22;15138;51.012;4.692;2022-09-21T01:46:11;9.70;1.00
27747;DHT22;15138;51.012;4.692;2022-09-21T01:48:43;9.60;1.00
27747;DHT22;15138;51.012;4.692;2022-09-21T01:51:15;9.60;41.90
27747;DHT22;15138;51.012;4.692;2022-09-21T01:53:48;9.60;99.90
27747;DHT22;15138;51.012;4.692;2022-09-21T01:56:23;9.60;99.90
27747;DHT22;15138;51.012;4.692;2022-09-21T01:59:00;9.50;99.90
27747;DHT22;15138;51.012;4.692;2022-09-21T02:01:36;9.50;1.00
27747;DHT22;15138;51.012;4.692;2022-09-21T02:04:09;9.50;99.90
27747;DHT22;15138;51.012;4.692;2022-09-21T02:06:41;9.40;99.90
27747;DHT22;15138;51.012;4.692;2022-09-21T02:09:10;9.40;1.00
27747;DHT22;15138;51.012;4.692;2022-09-21T02:11:39;9.40;1.00
27747;DHT22;15138;51.012;4.692;2022-09-21T02:14:09;9.40;99.90
27747;DHT22;15138;51.012;4.692;2022-09-21T02:16:45;9.50;99.90
27747;DHT22;15138;51.012;4.692;2022-09-21T02:19:20;9.40;1.00
27747;DHT22;15138;51.012;4.692;2022-09-21T02:21:57;9.30;99.90
27747;DHT22;15138;51.012;4.692;2022-09-21T02:24:37;9.30;1.00
27747;DHT22;15138;51.012;4.692;2022-09-21T02:27:14;9.30;99.90
27747;DHT22;15138;51.012;4.692;2022-09-21T02:29:49;9.20;29.60
27747;DHT22;15138;51.012;4.692;2022-09-21T02:32:27;9.20;1.00
27747;DHT22;15138;51.012;4.692;2022-09-21T02:35:08;9.20;1.00
27747;DHT22;15138;51.012;4.692;2022-09-21T02:37:43;9.10;1.00
27747;DHT22;15138;51.012;4.692;2022-09-21T02:40:20;9.10;99.90
27747;DHT22;15138;51.012;4.692;2022-09-21T02:42:54;9.10;1.00
27747;DHT22;15138;51.012;4.692;2022-09-21T02:45:26;9.10;1.00
27747;DHT22;15138;51.012;4.692;2022-09-21T02:47:59;9.20;99.90
27747;DHT22;15138;51.012;4.692;2022-09-21T02:50:32;9.10;1.00
27747;DHT22;15138;51.012;4.692;2022-09-21T02:53:02;9.00;1.00
27747;DHT22;15138;51.012;4.692;2022-09-21T02:55:32;9.00;99.90
27747;DHT22;15138;51.012;4.692;2022-09-21T02:58:03;8.90;1.00
27747;DHT22;15138;51.012;4.692;2022-09-21T03:00:33;8.90;1.00
27747;DHT22;15138;51.012;4.692;2022-09-21T03:03:13;8.90;99.90
27747;DHT22;15138;51.012;4.692;2022-09-21T03:05:44;8.90;99.90
27747;DHT22;15138;51.012;4.692;2022-09-21T03:08:13;8.90;99.90
27747;DHT22;15138;51.012;4.692;2022-09-21T03:10:41;8.80;1.00
27747;DHT22;15138;51.012;4.692;2022-09-21T03:13:09;8.90;99.90
27747;DHT22;15138;51.012;4.692;2022-09-21T03:15:39;8.90;1.00
27747;DHT22;15138;51.012;4.692;2022-09-21T03:18:08;8.90;99.90
27747;DHT22;15138;51.012;4.692;2022-09-21T03:20:38;8.90;99.90
27747;DHT22;15138;51.012;4.692;2022-09-21T03:23:06;8.90;1.00
27747;DHT22;15138;51.012;4.692;2022-09-21T03:25:34;8.90;99.90
27747;DHT22;15138;51.012;4.692;2022-09-21T03:28:02;8.80;56.80
27747;DHT22;15138;51.012;4.692;2022-09-21T03:30:30;8.70;99.90
27747;DHT22;15138;51.012;4.692;2022-09-21T03:32:58;8.70;1.00
27747;DHT22;15138;51.012;4.692;2022-09-21T03:35:28;8.70;1.00
27747;DHT22;15138;51.012;4.692;2022-09-21T03:37:56;8.80;1.00
27747;DHT22;15138;51.012;4.692;2022-09-21T03:40:25;8.80;99.90
27747;DHT22;15138;51.012;4.692;2022-09-21T03:42:53;8.80;1.00
27747;DHT22;15138;51.012;4.692;2022-09-21T03:45:22;8.70;1.00
27747;DHT22;15138;51.012;4.692;2022-09-21T03:47:53;8.80;72.60
27747;DHT22;15138;51.012;4.692;2022-09-21T03:50:22;8.70;99.90
27747;DHT22;15138;51.012;4.692;2022-09-21T03:52:52;8.70;99.90
27747;DHT22;15138;51.012;4.692;2022-09-21T03:55:20;8.70;51.00
27747;DHT22;15138;51.012;4.692;2022-09-21T03:57:48;8.70;99.90
27747;DHT22;15138;51.012;4.692;2022-09-21T04:00:17;8.70;1.00
27747;DHT22;15138;51.012;4.692;2022-09-21T04:02:45;8.70;85.10
27747;DHT22;15138;51.012;4.692;2022-09-21T04:05:14;8.70;99.90
27747;DHT22;15138;51.012;4.692;2022-09-21T04:07:43;8.70;99.90
27747;DHT22;15138;51.012;4.692;2022-09-21T04:10:15;8.70;99.90
27747;DHT22;15138;51.012;4.692;2022-09-21T04:12:44;8.70;1.00
27747;DHT22;15138;51.012;4.692;2022-09-21T04:15:14;8.70;99.90
27747;DHT22;15138;51.012;4.692;2022-09-21T04:17:45;8.60;1.00
27747;DHT22;15138;51.012;4.692;2022-09-21T04:20:13;8.50;1.00
27747;DHT22;15138;51.012;4.692;2022-09-21T04:22:41;8.50;1.00
27747;DHT22;15138;51.012;4.692;2022-09-21T04:25:10;8.60;99.90
27747;DHT22;15138;51.012;4.692;2022-09-21T04:27:40;8.60;99.90
27747;DHT22;15138;51.012;4.692;2022-09-21T04:30:10;8.50;1.00
27747;DHT22;15138;51.012;4.692;2022-09-21T04:32:39;8.40;1.00
27747;DHT22;15138;51.012;4.692;2022-09-21T04:35:08;8.30;1.00
27747;DHT22;15138;51.012;4.692;2022-09-21T04:37:36;8.40;1.00
27747;DHT22;15138;51.012;4.692;2022-09-21T04:40:05;8.40;1.00
27747;DHT22;15138;51.012;4.692;2022-09-21T04:42:34;8.40;1.00
27747;DHT22;15138;51.012;4.692;2022-09-21T04:45:04;8.50;1.00
27747;DHT22;15138;51.012;4.692;2022-09-21T04:47:32;8.40;1.00
27747;DHT22;15138;51.012;4.692;2022-09-21T04:50:00;8.40;1.00
27747;DHT22;15138;51.012;4.692;2022-09-21T04:52:28;8.50;1.00
27747;DHT22;15138;51.012;4.692;2022-09-21T04:54:56;8.50;99.90
27747;DHT22;15138;51.012;4.692;2022-09-21T04:57:24;8.50;99.90
27747;DHT22;15138;51.012;4.692;2022-09-21T04:59:52;9.00;99.90
27747;DHT22;15138;51.012;4.692;2022-09-21T05:02:22;8.50;99.90
27747;DHT22;15138;51.012;4.692;2022-09-21T05:04:50;8.50;1.00
27747;DHT22;15138;51.012;4.692;2022-09-21T05:07:18;8.50;1.00
27747;DHT22;15138;51.012;4.692;2022-09-21T05:09:46;8.50;1.00
27747;DHT22;15138;51.012;4.692;2022-09-21T05:12:28;8.60;1.00
27747;DHT22;15138;51.012;4.692;2022-09-21T05:14:56;8.50;1.00
27747;DHT22;15138;51.012;4.692;2022-09-21T05:17:26;8.50;1.00
27747;DHT22;15138;51.012;4.692;2022-09-21T05:19:54;8.50;1.00
27747;DHT22;15138;51.012;4.692;2022-09-21T05:22:22;8.50;1.00
27747;DHT22;15138;51.012;4.692;2022-09-21T05:24:50;8.50;1.00
27747;DHT22;15138;51.012;4.692;2022-09-21T05:27:18;8.60;1.00
27747;DHT22;15138;51.012;4.692;2022-09-21T05:29:47;8.60;1.00
27747;DHT22;15138;51.012;4.692;2022-09-21T05:32:19;8.60;1.00
27747;DHT22;15138;51.012;4.692;2022-09-21T05:35:02;8.60;1.00
27747;DHT22;15138;51.012;4.692;2022-09-21T05:37:47;8.70;1.00
27747;DHT22;15138;51.012;4.692;2022-09-21T05:40:19;8.70;1.00
27747;DHT22;15138;51.012;4.692;2022-09-21T05:42:47;8.70;1.00
27747;DHT22;15138;51.012;4.692;2022-09-21T05:45:17;8.70;21.80
27747;DHT22;15138;51.012;4.692;2022-09-21T05:47:57;8.80;1.00
27747;DHT22;15138;51.012;4.692;2022-09-21T05:50:36;8.80;12.40
27747;DHT22;15138;51.012;4.692;2022-09-21T05:53:25;8.80;22.40
27747;DHT22;15138;51.012;4.692;2022-09-21T05:55:56;8.70;78.80
27747;DHT22;15138;51.012;4.692;2022-09-21T05:58:32;8.70;99.90
27747;DHT22;15138;51.012;4.692;2022-09-21T06:01:19;8.80;90.70
27747;DHT22;15138;51.012;4.692;2022-09-21T06:03:51;8.80;73.50
27747;DHT22;15138;51.012;4.692;2022-09-21T06:06:21;8.80;32.60
27747;DHT22;15138;51.012;4.692;2022-09-21T06:08:49;8.80;24.80
27747;DHT22;15138;51.012;4.692;2022-09-21T06:11:18;8.90;24.30
27747;DHT22;15138;51.012;4.692;2022-09-21T06:13:45;8.90;12.90
27747;DHT22;15138;51.012;4.692;2022-09-21T06:16:14;8.90;52.00
27747;DHT22;15138;51.012;4.692;2022-09-21T06:18:42;8.90;55.40
27747;DHT22;15138;51.012;4.692;2022-09-21T06:21:10;8.90;91.70
27747;DHT22;15138;51.012;4.692;2022-09-21T06:23:39;8.70;99.90
27747;DHT22;15138;51.012;4.692;2022-09-21T06:26:07;8.80;99.90
27747;DHT22;15138;51.012;4.692;2022-09-21T06:28:35;8.90;99.90
27747;DHT22;15138;51.012;4.692;2022-09-21T06:31:03;9.00;99.90
27747;DHT22;15138;51.012;4.692;2022-09-21T06:33:31;9.10;99.90
27747;DHT22;15138;51.012;4.692;2022-09-21T06:36:01;9.20;99.90
27747;DHT22;15138;51.012;4.692;2022-09-21T06:38:29;9.30;99.90
27747;DHT22;15138;51.012;4.692;2022-09-21T06:41:02;9.30;99.90
27747;DHT22;15138;51.012;4.692;2022-09-21T06:43:31;9.40;99.90
27747;DHT22;15138;51.012;4.692;2022-09-21T06:46:00;9.40;99.90
27747;DHT22;15138;51.012;4.692;2022-09-21T06:48:29;9.50;99.90
27747;DHT22;15138;51.012;4.692;2022-09-21T06:50:59;9.70;99.90
27747;DHT22;15138;51.012;4.692;2022-09-21T06:53:28;9.80;99.90
27747;DHT22;15138;51.012;4.692;2022-09-21T06:56:01;9.90;99.90
27747;DHT22;15138;51.012;4.692;2022-09-21T06:58:30;10.00;99.90
27747;DHT22;15138;51.012;4.692;2022-09-21T07:01:04;10.10;99.90
27747;DHT22;15138;51.012;4.692;2022-09-21T07:03:33;10.40;99.90
27747;DHT22;15138;51.012;4.692;2022-09-21T07:06:02;10.60;99.90
27747;DHT22;15138;51.012;4.692;2022-09-21T07:08:30;10.70;99.90
27747;DHT22;15138;51.012;4.692;2022-09-21T07:11:19;10.80;99.90
27747;DHT22;15138;51.012;4.692;2022-09-21T07:13:49;11.00;99.90
27747;DHT22;15138;51.012;4.692;2022-09-21T07:16:18;11.20;99.90
27747;DHT22;15138;51.012;4.692;2022-09-21T07:18:47;11.30;99.90
27747;DHT22;15138;51.012;4.692;2022-09-21T07:21:15;11.50;99.90
27747;DHT22;15138;51.012;4.692;2022-09-21T07:23:43;11.70;99.90
27747;DHT22;15138;51.012;4.692;2022-09-21T07:26:12;11.90;99.90
27747;DHT22;15138;51.012;4.692;2022-09-21T07:28:42;12.20;99.90
27747;DHT22;15138;51.012;4.692;2022-09-21T07:31:12;12.50;99.90
27747;DHT22;15138;51.012;4.692;2022-09-21T07:33:41;12.90;99.90
27747;DHT22;15138;51.012;4.692;2022-09-21T07:36:10;13.40;99.90
27747;DHT22;15138;51.012;4.692;2022-09-21T07:38:40;13.90;99.90
27747;DHT22;15138;51.012;4.692;2022-09-21T07:41:10;14.20;99.90
27747;DHT22;15138;51.012;4.692;2022-09-21T07:43:38;14.50;93.80
27747;DHT22;15138;51.012;4.692;2022-09-21T07:46:10;14.80;47.80
27747;DHT22;15138;51.012;4.692;2022-09-21T07:48:39;15.50;99.90
27747;DHT22;15138;51.012;4.692;2022-09-21T07:51:08;15.70;1.00
27747;DHT22;15138;51.012;4.692;2022-09-21T07:53:38;16.10;1.00
27747;DHT22;15138;51.012;4.692;2022-09-21T07:56:09;16.40;1.00
27747;DHT22;15138;51.012;4.692;2022-09-21T07:58:37;16.70;1.00
27747;DHT22;15138;51.012;4.692;2022-09-21T08:01:25;17.10;99.90
27747;DHT22;15138;51.012;4.692;2022-09-21T08:03:55;17.70;99.90
27747;DHT22;15138;51.012;4.692;2022-09-21T08:06:24;18.00;1.00
27747;DHT22;15138;51.012;4.692;2022-09-21T08:08:53;18.50;99.90
27747;DHT22;15138;51.012;4.692;2022-09-21T08:11:24;18.70;99.90
27747;DHT22;15138;51.012;4.692;2022-09-21T08:13:54;19.10;1.00
27747;DHT22;15138;51.012;4.692;2022-09-21T08:21:22;20.30;1.00
27747;DHT22;15138;51.012;4.692;2022-09-21T08:23:50;20.70;99.90
27747;DHT22;15138;51.012;4.692;2022-09-21T08:26:19;21.10;1.00
27747;DHT22;15138;51.012;4.692;2022-09-21T08:28:50;21.20;1.00
27747;DHT22;15138;51.012;4.692;2022-09-21T08:31:20;21.40;99.90
27747;DHT22;15138;51.012;4.692;2022-09-21T08:36:21;21.70;99.90
27747;DHT22;15138;51.012;4.692;2022-09-21T08:38:50;22.00;48.80
27747;DHT22;15138;51.012;4.692;2022-09-21T08:43:51;23.00;1.00
27747;DHT22;15138;51.012;4.692;2022-09-21T08:46:21;23.30;99.90
27747;DHT22;15138;51.012;4.692;2022-09-21T08:48:54;22.70;1.00
27747;DHT22;15138;51.012;4.692;2022-09-21T08:51:27;23.10;99.90
27747;DHT22;15138;51.012;4.692;2022-09-21T08:53:59;23.00;3.60
27747;DHT22;15138;51.012;4.692;2022-09-21T08:56:28;23.70;1.00
27747;DHT22;15138;51.012;4.692;2022-09-21T08:59:17;24.00;1.00
27747;DHT22;15138;51.012;4.692;2022-09-21T09:01:54;24.00;1.00
27747;DHT22;15138;51.012;4.692;2022-09-21T09:04:47;24.20;1.00
27747;DHT22;15138;51.012;4.692;2022-09-21T09:07:29;24.30;1.00
27747;DHT22;15138;51.012;4.692;2022-09-21T09:10:17;24.50;1.00
27747;DHT22;15138;51.012;4.692;2022-09-21T09:12:55;25.30;1.00
27747;DHT22;15138;51.012;4.692;2022-09-21T09:15:40;25.90;99.90
27747;DHT22;15138;51.012;4.692;2022-09-21T09:18:13;26.20;99.90
27747;DHT22;15138;51.012;4.692;2022-09-21T09:20:46;26.50;99.90
27747;DHT22;15138;51.012;4.692;2022-09-21T09:23:20;26.90;99.90
27747;DHT22;15138;51.012;4.692;2022-09-21T09:25:52;26.90;99.90
27747;DHT22;15138;51.012;4.692;2022-09-21T09:28:25;27.30;99.90
27747;DHT22;15138;51.012;4.692;2022-09-21T09:30:59;27.70;99.90
27747;DHT22;15138;51.012;4.692;2022-09-21T09:33:33;28.00;99.90
27747;DHT22;15138;51.012;4.692;2022-09-21T09:36:05;28.10;99.90
27747;DHT22;15138;51.012;4.692;2022-09-21T09:38:37;28.60;99.90
27747;DHT22;15138;51.012;4.692;2022-09-21T09:41:23;28.20;99.90
27747;DHT22;15138;51.012;4.692;2022-09-21T09:44:01;28.40;99.90
27747;DHT22;15138;51.012;4.692;2022-09-21T09:46:36;28.70;99.90
27747;DHT22;15138;51.012;4.692;2022-09-21T09:49:20;28.70;97.70
27747;DHT22;15138;51.012;4.692;2022-09-21T09:51:53;28.90;96.90
27747;DHT22;15138;51.012;4.692;2022-09-21T09:54:25;29.50;89.50
27747;DHT22;15138;51.012;4.692;2022-09-21T09:56:53;29.50;81.20
27747;DHT22;15138;51.012;4.692;2022-09-21T09:59:25;29.50;54.60
27747;DHT22;15138;51.012;4.692;2022-09-21T10:02:01;29.80;43.40
27747;DHT22;15138;51.012;4.692;2022-09-21T10:04:29;29.00;61.50
27747;DHT22;15138;51.012;4.692;2022-09-21T10:07:00;29.20;28.30
27747;DHT22;15138;51.012;4.692;2022-09-21T10:09:31;28.80;27.70
27747;DHT22;15138;51.012;4.692;2022-09-21T10:12:02;28.90;24.60
27747;DHT22;15138;51.012;4.692;2022-09-21T10:14:36;29.50;23.00
27747;DHT22;15138;51.012;4.692;2022-09-21T10:17:06;29.80;1.00
27747;DHT22;15138;51.012;4.692;2022-09-21T10:19:34;30.50;1.00
27747;DHT22;15138;51.012;4.692;2022-09-21T10:22:04;30.70;1.00
27747;DHT22;15138;51.012;4.692;2022-09-21T10:24:36;29.90;1.00
27747;DHT22;15138;51.012;4.692;2022-09-21T10:27:11;29.60;1.00
27747;DHT22;15138;51.012;4.692;2022-09-21T10:29:42;29.60;1.00
27747;DHT22;15138;51.012;4.692;2022-09-21T10:32:22;29.20;1.00
27747;DHT22;15138;51.012;4.692;2022-09-21T10:35:14;29.70;1.00
27747;DHT22;15138;51.012;4.692;2022-09-21T10:37:44;29.00;1.00
27747;DHT22;15138;51.012;4.692;2022-09-21T10:40:27;28.00;1.00
27747;DHT22;15138;51.012;4.692;2022-09-21T10:42:58;28.20;1.00
27747;DHT22;15138;51.012;4.692;2022-09-21T10:45:28;29.10;1.00
27747;DHT22;15138;51.012;4.692;2022-09-21T10:47:58;29.50;1.00
27747;DHT22;15138;51.012;4.692;2022-09-21T10:50:35;29.50;1.00
27747;DHT22;15138;51.012;4.692;2022-09-21T10:53:11;30.20;1.00
27747;DHT22;15138;51.012;4.692;2022-09-21T10:55:43;30.10;1.00
27747;DHT22;15138;51.012;4.692;2022-09-21T10:58:34;29.50;1.00
27747;DHT22;15138;51.012;4.692;2022-09-21T11:01:11;29.00;1.00
27747;DHT22;15138;51.012;4.692;2022-09-21T11:03:48;28.40;1.00
27747;DHT22;15138;51.012;4.692;2022-09-21T11:06:22;28.20;1.00
27747;DHT22;15138;51.012;4.692;2022-09-21T11:08:55;27.80;1.00
27747;DHT22;15138;51.012;4.692;2022-09-21T11:11:36;27.60;1.00
27747;DHT22;15138;51.012;4.692;2022-09-21T11:14:14;27.40;1.00
27747;DHT22;15138;51.012;4.692;2022-09-21T11:16:47;27.10;1.00
27747;DHT22;15138;51.012;4.692;2022-09-21T11:19:24;26.80;1.00
27747;DHT22;15138;51.012;4.692;2022-09-21T11:21:59;26.50;1.00
27747;DHT22;15138;51.012;4.692;2022-09-21T11:24:36;26.10;1.00
27747;DHT22;15138;51.012;4.692;2022-09-21T11:27:10;25.90;1.00
27747;DHT22;15138;51.012;4.692;2022-09-21T11:29:47;25.60;1.00
27747;DHT22;15138;51.012;4.692;2022-09-21T11:32:32;25.40;1.00
27747;DHT22;15138;51.012;4.692;2022-09-21T11:35:21;25.20;1.00
27747;DHT22;15138;51.012;4.692;2022-09-21T11:38:04;24.80;1.00
27747;DHT22;15138;51.012;4.692;2022-09-21T11:40:49;24.50;1.00
27747;DHT22;15138;51.012;4.692;2022-09-21T11:43:36;24.30;1.00
27747;DHT22;15138;51.012;4.692;2022-09-21T11:46:11;24.20;1.00
27747;DHT22;15138;51.012;4.692;2022-09-21T11:48:54;24.10;1.00
27747;DHT22;15138;51.012;4.692;2022-09-21T11:51:36;23.80;1.00
27747;DHT22;15138;51.012;4.692;2022-09-21T11:54:28;23.60;1.00
27747;DHT22;15138;51.012;4.692;2022-09-21T11:57:04;23.50;1.00
27747;DHT22;15138;51.012;4.692;2022-09-21T11:59:53;23.20;1.00
27747;DHT22;15138;51.012;4.692;2022-09-21T12:02:36;23.30;1.00
27747;DHT22;15138;51.012;4.692;2022-09-21T12:05:17;23.30;1.00
27747;DHT22;15138;51.012;4.692;2022-09-21T12:07:57;23.10;1.00
27747;DHT22;15138;51.012;4.692;2022-09-21T12:10:38;23.00;1.00
27747;DHT22;15138;51.012;4.692;2022-09-21T12:13:14;22.80;1.00
27747;DHT22;15138;51.012;4.692;2022-09-21T12:15:52;22.70;1.00
27747;DHT22;15138;51.012;4.692;2022-09-21T12:18:27;22.60;1.00
27747;DHT22;15138;51.012;4.692;2022-09-21T12:21:03;22.50;1.00
27747;DHT22;15138;51.012;4.692;2022-09-21T12:23:40;22.50;1.00
27747;DHT22;15138;51.012;4.692;2022-09-21T12:26:10;22.20;1.00
27747;DHT22;15138;51.012;4.692;2022-09-21T12:28:44;21.90;1.00
27747;DHT22;15138;51.012;4.692;2022-09-21T12:31:18;21.90;1.00
27747;DHT22;15138;51.012;4.692;2022-09-21T12:33:50;21.90;1.00
27747;DHT22;15138;51.012;4.692;2022-09-21T12:36:23;21.80;1.00
27747;DHT22;15138;51.012;4.692;2022-09-21T12:38:57;21.80;1.00
27747;DHT22;15138;51.012;4.692;2022-09-21T12:41:32;21.60;4.40
27747;DHT22;15138;51.012;4.692;2022-09-21T12:44:08;21.50;8.20
27747;DHT22;15138;51.012;4.692;2022-09-21T12:46:45;21.40;9.10
27747;DHT22;15138;51.012;4.692;2022-09-21T12:49:22;21.40;15.10
27747;DHT22;15138;51.012;4.692;2022-09-21T12:51:53;21.30;20.80
27747;DHT22;15138;51.012;4.692;2022-09-21T12:54:28;22.50;90.70
27747;DHT22;15138;51.012;4.692;2022-09-21T12:57:10;23.70;49.50
27747;DHT22;15138;51.012;4.692;2022-09-21T13:00:03;24.20;1.00
27747;DHT22;15138;51.012;4.692;2022-09-21T13:02:39;24.70;1.00
27747;DHT22;15138;51.012;4.692;2022-09-21T13:05:20;25.40;1.00
27747;DHT22;15138;51.012;4.692;2022-09-21T13:08:00;26.20;1.00
27747;DHT22;15138;51.012;4.692;2022-09-21T13:10:37;26.40;1.00
27747;DHT22;15138;51.012;4.692;2022-09-21T13:13:15;26.90;1.00
27747;DHT22;15138;51.012;4.692;2022-09-21T13:15:46;27.30;1.00
27747;DHT22;15138;51.012;4.692;2022-09-21T13:18:19;27.50;1.00
27747;DHT22;15138;51.012;4.692;2022-09-21T13:20:49;28.10;1.00
27747;DHT22;15138;51.012;4.692;2022-09-21T13:23:25;28.60;99.90
27747;DHT22;15138;51.012;4.692;2022-09-21T13:26:01;28.60;99.90
27747;DHT22;15138;51.012;4.692;2022-09-21T13:29:04;27.40;1.00
27747;DHT22;15138;51.012;4.692;2022-09-21T13:31:52;28.50;1.00
27747;DHT22;15138;51.012;4.692;2022-09-21T13:34:27;28.50;99.90
27747;DHT22;15138;51.012;4.692;2022-09-21T13:37:25;29.00;99.90
27747;DHT22;15138;51.012;4.692;2022-09-21T13:43:22;30.60;28.10
27747;DHT22;15138;51.012;4.692;2022-09-21T13:48:23;31.50;1.00
27747;DHT22;15138;51.012;4.692;2022-09-21T13:50:59;31.70;1.00
27747;DHT22;15138;51.012;4.692;2022-09-21T13:53:32;32.00;1.00
27747;DHT22;15138;51.012;4.692;2022-09-21T13:56:14;31.70;1.00
27747;DHT22;15138;51.012;4.692;2022-09-21T13:58:45;31.40;1.00
27747;DHT22;15138;51.012;4.692;2022-09-21T14:01:18;30.90;1.00
27747;DHT22;15138;51.012;4.692;2022-09-21T14:04:19;30.00;1.00
27747;DHT22;15138;51.012;4.692;2022-09-21T14:06:51;29.50;1.00
27747;DHT22;15138;51.012;4.692;2022-09-21T14:09:23;29.40;1.00
27747;DHT22;15138;51.012;4.692;2022-09-21T14:11:55;29.30;1.00
27747;DHT22;15138;51.012;4.692;2022-09-21T14:14:27;28.70;1.00
27747;DHT22;15138;51.012;4.692;2022-09-21T14:16:57;28.60;1.00
27747;DHT22;15138;51.012;4.692;2022-09-21T14:22:44;28.50;1.00
27747;DHT22;15138;51.012;4.692;2022-09-21T14:25:26;28.10;1.00
27747;DHT22;15138;51.012;4.692;2022-09-21T14:28:04;27.60;1.00
27747;DHT22;15138;51.012;4.692;2022-09-21T14:30:39;27.20;1.00
27747;DHT22;15138;51.012;4.692;2022-09-21T14:33:23;26.80;1.00
27747;DHT22;15138;51.012;4.692;2022-09-21T14:35:53;26.60;1.00
27747;DHT22;15138;51.012;4.692;2022-09-21T14:38:27;26.20;1.00
27747;DHT22;15138;51.012;4.692;2022-09-21T14:41:02;25.80;1.00
27747;DHT22;15138;51.012;4.692;2022-09-21T14:43:34;25.50;1.00
27747;DHT22;15138;51.012;4.692;2022-09-21T14:46:27;25.30;1.00
27747;DHT22;15138;51.012;4.692;2022-09-21T14:49:09;25.10;1.00
27747;DHT22;15138;51.012;4.692;2022-09-21T14:51:47;24.60;1.00
27747;DHT22;15138;51.012;4.692;2022-09-21T14:54:44;24.80;1.00
27747;DHT22;15138;51.012;4.692;2022-09-21T14:57:27;25.40;1.00
27747;DHT22;15138;51.012;4.692;2022-09-21T15:00:18;25.80;1.00
27747;DHT22;15138;51.012;4.692;2022-09-21T15:03:04;26.00;1.00
27747;DHT22;15138;51.012;4.692;2022-09-21T15:05:37;26.10;1.00
27747;DHT22;15138;51.012;4.692;2022-09-21T15:08:20;26.40;1.00
27747;DHT22;15138;51.012;4.692;2022-09-21T15:11:14;26.60;1.00
27747;DHT22;15138;51.012;4.692;2022-09-21T15:14:12;26.50;1.00
27747;DHT22;15138;51.012;4.692;2022-09-21T15:16:43;26.30;1.00
27747;DHT22;15138;51.012;4.692;2022-09-21T15:19:21;26.40;1.00
27747;DHT22;15138;51.012;4.692;2022-09-21T15:21:51;26.50;1.00
27747;DHT22;15138;51.012;4.692;2022-09-21T15:24:23;26.20;1.00
27747;DHT22;15138;51.012;4.692;2022-09-21T15:27:00;25.90;1.00
27747;DHT22;15138;51.012;4.692;2022-09-21T15:29:30;25.80;1.00
27747;DHT22;15138;51.012;4.692;2022-09-21T15:32:00;26.00;1.00
27747;DHT22;15138;51.012;4.692;2022-09-21T15:34:28;25.60;1.00
27747;DHT22;15138;51.012;4.692;2022-09-21T15:37:12;25.50;1.00
27747;DHT22;15138;51.012;4.692;2022-09-21T15:39:42;25.10;1.00
27747;DHT22;15138;51.012;4.692;2022-09-21T15:42:17;24.90;1.00
27747;DHT22;15138;51.012;4.692;2022-09-21T15:44:49;24.80;1.00
27747;DHT22;15138;51.012;4.692;2022-09-21T15:47:21;24.50;1.00
27747;DHT22;15138;51.012;4.692;2022-09-21T15:49:52;24.20;1.00
27747;DHT22;15138;51.012;4.692;2022-09-21T15:52:29;23.90;1.00
27747;DHT22;15138;51.012;4.692;2022-09-21T15:55:00;23.80;1.00
27747;DHT22;15138;51.012;4.692;2022-09-21T15:57:33;23.60;1.00
27747;DHT22;15138;51.012;4.692;2022-09-21T16:00:16;23.40;1.00
27747;DHT22;15138;51.012;4.692;2022-09-21T16:02:58;23.30;1.00
27747;DHT22;15138;51.012;4.692;2022-09-21T16:05:33;23.10;1.00
27747;DHT22;15138;51.012;4.692;2022-09-21T16:08:25;22.90;1.00
27747;DHT22;15138;51.012;4.692;2022-09-21T16:11:12;22.60;1.00
27747;DHT22;15138;51.012;4.692;2022-09-21T16:13:41;22.40;1.00
27747;DHT22;15138;51.012;4.692;2022-09-21T16:16:28;22.20;1.00
27747;DHT22;15138;51.012;4.692;2022-09-21T16:18:57;22.10;1.00
27747;DHT22;15138;51.012;4.692;2022-09-21T16:21:27;21.80;1.00
27747;DHT22;15138;51.012;4.692;2022-09-21T16:24:08;21.70;1.00
27747;DHT22;15138;51.012;4.692;2022-09-21T16:26:38;21.40;1.00
27747;DHT22;15138;51.012;4.692;2022-09-21T16:29:19;21.10;1.00
27747;DHT22;15138;51.012;4.692;2022-09-21T16:31:49;20.80;1.00
27747;DHT22;15138;51.012;4.692;2022-09-21T16:39:23;20.80;1.00
27747;DHT22;15138;51.012;4.692;2022-09-21T16:42:00;20.80;99.90
27747;DHT22;15138;51.012;4.692;2022-09-21T16:44:29;20.80;17.50
27747;DHT22;15138;51.012;4.692;2022-09-21T16:47:11;20.70;95.10
27747;DHT22;15138;51.012;4.692;2022-09-21T16:49:40;20.60;99.90
27747;DHT22;15138;51.012;4.692;2022-09-21T16:52:08;20.50;1.00
27747;DHT22;15138;51.012;4.692;2022-09-21T16:54:36;20.30;99.90